createdAt,value
2023-04-02T00:00:39.277Z,98.8
2023-04-02T00:01:53.595Z,98.8
2023-04-02T00:03:07.878Z,98.7
2023-04-02T00:04:22.167Z,98.6
2023-04-02T00:05:36.565Z,98.5
2023-04-02T00:06:50.883Z,98.5
2023-04-02T00:08:05.177Z,98.8
2023-04-02T00:09:19.452Z,99.2
2023-04-02T00:10:33.856Z,98.9
2023-04-02T00:11:48.186Z,98.5
2023-04-02T00:13:02.459Z,99.2
2023-04-02T00:14:16.810Z,98.8
2023-04-02T00:15:31.217Z,98.3
2023-04-02T00:16:45.550Z,97.8
2023-04-02T00:17:58.899Z,98
2023-04-02T00:19:13.179Z,98
2023-04-02T00:20:27.591Z,97.9
2023-04-02T00:21:41.913Z,97.8
2023-04-02T00:22:56.191Z,97.7
2023-04-02T00:24:10.469Z,97.8
2023-04-02T00:25:24.866Z,98.5
2023-04-02T00:26:39.204Z,99.1
2023-04-02T00:27:53.483Z,99.1
2023-04-02T00:29:07.757Z,99.4
2023-04-02T00:30:22.164Z,99.3
2023-04-02T00:31:36.483Z,99.6
2023-04-02T00:32:50.781Z,99.8
2023-04-02T00:34:05.048Z,99.9
2023-04-02T00:35:19.465Z,99.5
2023-04-02T00:36:33.792Z,99.3
2023-04-02T00:37:48.062Z,99.5
2023-04-02T00:39:02.337Z,99.8
2023-04-02T00:40:16.755Z,99.8
2023-04-02T00:41:31.078Z,99.8
2023-04-02T00:42:45.352Z,99.7
2023-04-02T00:43:59.628Z,99.8
2023-04-02T00:45:14.049Z,99.8
2023-04-02T00:46:28.367Z,99.4
2023-04-02T00:47:42.651Z,98.5
2023-04-02T00:48:56.982Z,98.6
2023-04-02T00:50:11.388Z,98.9
2023-04-02T00:51:25.731Z,99.2
2023-04-02T00:52:39.086Z,99.2
2023-04-02T00:53:53.366Z,99.8
2023-04-02T00:55:07.770Z,100
2023-04-02T00:56:22.094Z,100
2023-04-02T00:57:36.365Z,100
2023-04-02T00:58:50.665Z,100
2023-04-02T01:00:05.060Z,100
2023-04-02T01:01:19.379Z,100
2023-04-02T01:02:33.662Z,100
2023-04-02T01:03:47.955Z,99.9
2023-04-02T01:05:02.356Z,100
2023-04-02T01:06:16.674Z,99.9
2023-04-02T01:07:30.953Z,99.4
2023-04-02T01:08:45.241Z,99.5
2023-04-02T01:09:59.640Z,99.7
2023-04-02T01:11:13.970Z,99.7
2023-04-02T01:12:28.252Z,99.6
2023-04-02T01:13:42.536Z,99.1
2023-04-02T01:14:56.927Z,98.5
2023-04-02T01:16:11.266Z,98.9
2023-04-02T01:17:25.547Z,98.4
2023-04-02T01:18:39.868Z,98.7
2023-04-02T01:19:54.146Z,98.4
2023-04-02T01:21:08.560Z,98.3
2023-04-02T01:22:22.883Z,98.7
2023-04-02T01:23:37.215Z,98.9
2023-04-02T01:24:50.605Z,98.5
2023-04-02T01:26:04.950Z,98.9
2023-04-02T01:27:18.280Z,98.6
2023-04-02T01:28:32.560Z,98.8
2023-04-02T01:29:46.979Z,98.6
2023-04-02T01:31:01.290Z,99.2
2023-04-02T01:32:15.573Z,99
2023-04-02T01:33:29.910Z,98.9
2023-04-02T01:34:44.189Z,99.2
2023-04-02T01:35:58.595Z,99.4
2023-04-02T01:37:12.917Z,99.6
2023-04-02T01:38:27.205Z,99.3
2023-04-02T01:39:41.472Z,98.7
2023-04-02T01:40:55.886Z,98.7
2023-04-02T01:42:10.211Z,98.9
2023-04-02T01:43:24.502Z,98.9
2023-04-02T01:44:38.776Z,98.7
2023-04-02T01:45:53.179Z,98.5
2023-04-02T01:48:21.782Z,97.9
2023-04-02T01:49:36.059Z,97.9
2023-04-02T01:50:50.481Z,97.6
2023-04-02T01:52:04.800Z,97.5
2023-04-02T01:53:19.080Z,97.8
2023-04-02T01:54:33.362Z,98.1
2023-04-02T01:55:47.776Z,98
2023-04-02T01:57:02.094Z,97.9
2023-04-02T01:58:16.445Z,98.1
2023-04-02T01:59:29.812Z,97.7
2023-04-02T02:00:44.153Z,97.7
2023-04-02T02:01:57.514Z,98.1
2023-04-02T02:03:11.782Z,97.6
2023-04-02T02:04:26.194Z,97.5
2023-04-02T02:05:40.517Z,97.9
2023-04-02T02:08:09.081Z,97.5
2023-04-02T02:09:23.489Z,97.7
2023-04-02T02:10:37.819Z,98.3
2023-04-02T02:11:52.206Z,98.2
2023-04-02T02:13:06.531Z,98.8
2023-04-02T02:14:20.809Z,99.1
2023-04-02T02:15:35.229Z,98.8
2023-04-02T02:16:49.547Z,98.5
2023-04-02T02:18:03.827Z,98.3
2023-04-02T02:19:18.113Z,98.8
2023-04-02T02:20:32.518Z,98.7
2023-04-02T02:21:46.838Z,99
2023-04-02T02:23:01.117Z,99
2023-04-02T02:24:15.408Z,99.1
2023-04-02T02:25:29.806Z,99
2023-04-02T02:26:44.128Z,99
2023-04-02T02:27:58.413Z,98.7
2023-04-02T02:29:12.690Z,98.5
2023-04-02T02:30:27.110Z,98.5
2023-04-02T02:31:41.438Z,98.2
2023-04-02T02:32:55.712Z,97.9
2023-04-02T02:34:09.986Z,97.7
2023-04-02T02:35:24.401Z,98.3
2023-04-02T02:36:38.733Z,98.1
2023-04-02T02:37:53.009Z,98.3
2023-04-02T02:39:07.284Z,97.9
2023-04-02T02:40:21.689Z,97.8
2023-04-02T02:41:36.016Z,97.8
2023-04-02T02:42:50.295Z,97.5
2023-04-02T02:44:04.577Z,97.7
2023-04-02T02:45:18.988Z,96
2023-04-02T02:46:33.315Z,96.7
2023-04-02T02:47:47.581Z,96.3
2023-04-02T02:49:01.880Z,95.4
2023-04-02T02:50:16.283Z,95.8
2023-04-02T02:51:30.604Z,94.9
2023-04-02T02:52:44.880Z,95.4
2023-04-02T02:53:59.157Z,95.1
2023-04-02T02:55:13.561Z,95.3
2023-04-02T02:56:27.891Z,95.6
2023-04-02T02:57:42.239Z,95.3
2023-04-02T02:58:55.579Z,95.3
2023-04-02T03:00:09.899Z,95.6
2023-04-02T03:01:24.191Z,95.9
2023-04-02T03:02:38.472Z,94.5
2023-04-02T03:03:52.871Z,94.9
2023-04-02T03:05:07.205Z,95.1
2023-04-02T03:06:21.470Z,94.8
2023-04-02T03:07:35.767Z,94
2023-04-02T03:08:50.169Z,94.3
2023-04-02T03:10:04.483Z,94.3
2023-04-02T03:11:18.761Z,94.5
2023-04-02T03:12:33.047Z,94.4
2023-04-02T03:13:47.467Z,95
2023-04-02T03:15:01.785Z,95.2
2023-04-02T03:16:16.066Z,95.2
2023-04-02T03:17:30.346Z,95.4
2023-04-02T03:18:44.757Z,95.7
2023-04-02T03:19:59.063Z,95.5
2023-04-02T03:21:13.343Z,95.6
2023-04-02T03:22:27.781Z,95.4
2023-04-02T03:23:42.176Z,95.5
2023-04-02T03:24:56.509Z,95.2
2023-04-02T03:26:10.794Z,95.3
2023-04-02T03:27:25.060Z,94.7
2023-04-02T03:28:39.482Z,95.1
2023-04-02T03:29:53.803Z,95.2
2023-04-02T03:31:08.087Z,95.6
2023-04-02T03:32:22.367Z,95.4
2023-04-02T03:33:36.767Z,95.2
2023-04-02T03:36:05.364Z,94.1
2023-04-02T03:37:19.663Z,94
2023-04-02T03:38:34.062Z,94.3
2023-04-02T03:39:48.378Z,93.5
2023-04-02T03:41:02.667Z,93.2
2023-04-02T03:42:16.951Z,93
2023-04-02T03:43:31.344Z,92.7
2023-04-02T03:44:45.667Z,92
2023-04-02T03:45:59.950Z,92.4
2023-04-02T03:48:28.639Z,92.2
2023-04-02T03:49:42.975Z,92.7
2023-04-02T03:50:57.252Z,93
2023-04-02T03:52:11.534Z,93.8
2023-04-02T03:53:26.000Z,93
2023-04-02T03:54:40.335Z,92.8
2023-04-02T03:55:53.674Z,93.3
2023-04-02T03:57:07.972Z,93.5
2023-04-02T03:58:22.373Z,93.6
2023-04-02T03:59:36.690Z,94.3
2023-04-02T04:00:50.972Z,94.4
2023-04-02T04:02:05.248Z,93.5
2023-04-02T04:03:19.657Z,93.2
2023-04-02T04:04:33.989Z,93.5
2023-04-02T04:05:48.262Z,93.3
2023-04-02T04:07:02.549Z,92.4
2023-04-02T04:08:16.951Z,92.7
2023-04-02T04:09:31.269Z,93
2023-04-02T04:10:45.553Z,92.4
2023-04-02T04:11:59.846Z,91.6
2023-04-02T04:13:14.242Z,91.5
2023-04-02T04:14:28.569Z,91.5
2023-04-02T04:15:42.843Z,91.7
2023-04-02T04:16:57.135Z,91.3
2023-04-02T04:18:11.537Z,91.2
2023-04-02T04:19:25.867Z,91
2023-04-02T04:20:40.147Z,90.9
2023-04-02T04:21:54.430Z,91
2023-04-02T04:23:08.824Z,91.5
2023-04-02T04:24:23.122Z,91
2023-04-02T04:26:51.746Z,91.6
2023-04-02T04:28:06.157Z,91.8
2023-04-02T04:29:20.446Z,92.3
2023-04-02T04:30:33.725Z,92.7
2023-04-02T04:34:16.714Z,92.9
2023-04-02T04:35:30.995Z,93.3
2023-04-02T04:36:45.281Z,92.7
2023-04-02T04:37:59.565Z,92.4
2023-04-02T04:39:13.916Z,91.8
2023-04-02T04:40:28.156Z,91.6
2023-04-02T04:41:42.393Z,91
2023-04-02T04:42:56.613Z,91.6
2023-04-02T04:44:10.842Z,91.5
2023-04-02T04:45:25.137Z,91.2
2023-04-02T04:46:39.384Z,91.4
2023-04-02T04:47:53.595Z,91.5
2023-04-02T04:49:07.827Z,91.4
2023-04-02T04:50:22.053Z,92.1
2023-04-02T04:51:36.351Z,92.9
2023-04-02T04:52:50.607Z,92.7
2023-04-02T04:54:04.821Z,92.8
2023-04-02T04:55:19.061Z,92.3
2023-04-02T04:56:33.273Z,93
2023-04-02T04:57:47.588Z,93
2023-04-02T04:59:01.816Z,92.1
2023-04-02T05:00:16.049Z,92.2
2023-04-02T05:01:30.413Z,92.3
2023-04-02T05:02:44.643Z,92.2
2023-04-02T05:03:58.946Z,92.2
2023-04-02T05:05:13.199Z,92
2023-04-02T05:06:27.409Z,91.2
2023-04-02T05:07:41.761Z,91.1
2023-04-02T05:08:55.989Z,91.5
2023-04-02T05:10:10.295Z,91.1
2023-04-02T05:11:24.543Z,90.9
2023-04-02T05:12:38.757Z,91.4
2023-04-02T05:13:52.983Z,91.2
2023-04-02T05:15:07.215Z,91
2023-04-02T05:16:21.508Z,91.2
2023-04-02T05:17:35.751Z,91.2
2023-04-02T05:18:49.973Z,91.2
2023-04-02T05:20:04.209Z,90.8
2023-04-02T05:21:18.442Z,90.9
2023-04-02T05:22:32.741Z,90.8
2023-04-02T05:23:46.975Z,91
2023-04-02T05:25:01.202Z,91.1
2023-04-02T05:26:15.000Z,91.3
2023-04-02T05:27:29.663Z,90.9
2023-04-02T05:29:58.198Z,91.3
2023-04-02T05:31:12.423Z,91.5
2023-04-02T05:32:26.658Z,92.1
2023-04-02T05:33:40.894Z,91.6
2023-04-02T05:34:55.185Z,91.5
2023-04-02T05:36:09.425Z,91.3
2023-04-02T05:37:23.656Z,91
2023-04-02T05:38:37.872Z,91.3
2023-04-02T05:39:52.098Z,91.6
2023-04-02T05:41:06.406Z,91.4
2023-04-02T05:42:20.644Z,91.2
2023-04-02T05:43:34.871Z,90.8
2023-04-02T05:44:49.098Z,90.8
2023-04-02T05:46:03.324Z,90.5
2023-04-02T05:47:17.617Z,90.3
2023-04-02T05:48:31.860Z,91.1
2023-04-02T05:49:46.094Z,91.4
2023-04-02T05:51:00.469Z,91.2
2023-04-02T05:52:14.682Z,90.5
2023-04-02T05:53:28.994Z,90.2
2023-04-02T05:54:43.219Z,90.5
2023-04-02T05:55:57.454Z,90.4
2023-04-02T05:57:11.672Z,90.1
2023-04-02T05:58:25.906Z,90.6
2023-04-02T05:59:40.216Z,90.4
2023-04-02T06:00:54.444Z,90.4
2023-04-02T06:02:08.675Z,90.3
2023-04-02T06:03:22.902Z,90.3
2023-04-02T06:04:37.127Z,91.3
2023-04-02T06:05:51.435Z,89.9
2023-04-02T06:07:05.668Z,89.6
2023-04-02T06:08:19.891Z,90.2
2023-04-02T06:09:34.128Z,89.9
2023-04-02T06:10:48.350Z,89.7
2023-04-02T06:12:02.650Z,89.4
2023-04-02T06:13:16.899Z,89.1
2023-04-02T06:14:31.118Z,88.9
2023-04-02T06:15:45.351Z,89.1
2023-04-02T06:16:59.568Z,89.4
2023-04-02T06:18:13.866Z,89.7
2023-04-02T06:20:42.336Z,89.4
2023-04-02T06:21:56.629Z,89.1
2023-04-02T06:23:09.915Z,89.1
2023-04-02T06:24:24.161Z,89.3
2023-04-02T06:25:38.395Z,89.1
2023-04-02T06:26:52.614Z,88.3
2023-04-02T06:28:06.854Z,87.4
2023-04-02T06:29:21.150Z,88.5
2023-04-02T06:30:35.379Z,88.4
2023-04-02T06:31:49.614Z,88.1
2023-04-02T06:33:03.844Z,88.3
2023-04-02T06:34:18.059Z,87.5
2023-04-02T06:35:32.361Z,88.4
2023-04-02T06:36:46.602Z,88
2023-04-02T06:38:00.835Z,88.1
2023-04-02T06:39:15.065Z,87.2
2023-04-02T06:40:29.292Z,87.2
2023-04-02T06:41:43.599Z,87
2023-04-02T06:42:57.833Z,87.4
2023-04-02T06:44:12.059Z,86.6
2023-04-02T06:45:26.279Z,86.7
2023-04-02T06:46:40.513Z,87
2023-04-02T06:47:54.813Z,87.4
2023-04-02T06:49:09.044Z,87.7
2023-04-02T06:50:23.286Z,87.2
2023-04-02T06:51:37.515Z,87.3
2023-04-02T06:52:51.738Z,87.5
2023-04-02T06:54:06.099Z,87.2
2023-04-02T06:55:20.378Z,87
2023-04-02T06:56:33.715Z,87.3
2023-04-02T06:57:47.993Z,86.9
2023-04-02T06:59:02.294Z,86.9
2023-04-02T07:00:16.578Z,86.2
2023-04-02T07:01:29.873Z,87
2023-04-02T07:02:44.090Z,86.2
2023-04-02T07:03:58.403Z,86.7
2023-04-02T07:05:12.627Z,85.7
2023-04-02T07:06:26.866Z,85.9
2023-04-02T07:07:41.086Z,85.9
2023-04-02T07:08:55.308Z,85.5
2023-04-02T07:10:09.621Z,85.7
2023-04-02T07:11:23.859Z,85
2023-04-02T07:12:38.093Z,86.1
2023-04-02T07:13:52.310Z,85.2
2023-04-02T07:15:06.548Z,85.6
2023-04-02T07:16:20.840Z,85.7
2023-04-02T07:17:35.071Z,84.6
2023-04-02T07:18:49.305Z,84.6
2023-04-02T07:20:03.537Z,84.3
2023-04-02T07:21:17.757Z,84.4
2023-04-02T07:22:32.055Z,84.3
2023-04-02T07:23:46.309Z,84.2
2023-04-02T07:25:00.520Z,83.2
2023-04-02T07:26:14.755Z,82.6
2023-04-02T07:27:28.973Z,83.4
2023-04-02T07:28:43.274Z,82.6
2023-04-02T07:29:57.531Z,82.1
2023-04-02T07:31:11.743Z,81.8
2023-04-02T07:32:26.042Z,82.4
2023-04-02T07:33:39.322Z,82.1
2023-04-02T07:34:53.581Z,82.1
2023-04-02T07:36:07.797Z,81.9
2023-04-02T07:37:22.018Z,80.8
2023-04-02T07:38:36.254Z,81.5
2023-04-02T07:39:50.553Z,81.7
2023-04-02T07:41:04.802Z,81.2
2023-04-02T07:42:19.010Z,80.3
2023-04-02T07:43:33.241Z,80.5
2023-04-02T07:44:47.470Z,81
2023-04-02T07:46:01.778Z,81.3
2023-04-02T07:48:30.240Z,80.5
2023-04-02T07:49:44.469Z,81
2023-04-02T07:50:58.824Z,80.7
2023-04-02T07:52:13.126Z,80.6
2023-04-02T07:53:27.360Z,80.9
2023-04-02T07:54:41.581Z,81.3
2023-04-02T07:55:55.816Z,80.5
2023-04-02T07:58:24.334Z,81
2023-04-02T07:59:38.571Z,81.3
2023-04-02T08:00:52.811Z,81.1
2023-04-02T08:02:07.041Z,80.8
2023-04-02T08:03:21.262Z,81.2
2023-04-02T08:04:35.553Z,81.5
2023-04-02T08:05:49.790Z,80
2023-04-02T08:07:04.032Z,80.8
2023-04-02T08:08:18.243Z,79.9
2023-04-02T08:09:32.487Z,79.4
2023-04-02T08:10:46.783Z,80.2
2023-04-02T08:12:01.025Z,79.8
2023-04-02T08:13:15.255Z,80.3
2023-04-02T08:14:29.466Z,81
2023-04-02T08:15:43.706Z,80.6
2023-04-02T08:16:57.997Z,80.1
2023-04-02T08:18:12.251Z,80.3
2023-04-02T08:19:26.463Z,80
2023-04-02T08:20:40.699Z,80.3
2023-04-02T08:21:54.930Z,79
2023-04-02T08:23:09.220Z,80
2023-04-02T08:24:23.462Z,79.7
2023-04-02T08:25:37.690Z,79.6
2023-04-02T08:26:51.927Z,78.7
2023-04-02T08:28:06.142Z,78.8
2023-04-02T08:29:20.461Z,78.8
2023-04-02T08:30:34.678Z,79.4
2023-04-02T08:31:48.914Z,79.8
2023-04-02T08:33:03.129Z,79.2
2023-04-02T08:34:17.365Z,78.5
2023-04-02T08:35:31.668Z,77.9
2023-04-02T08:38:00.246Z,78.7
2023-04-02T08:39:13.585Z,77.5
2023-04-02T08:40:27.891Z,77.9
2023-04-02T08:41:42.155Z,78.2
2023-04-02T08:42:56.451Z,76.5
2023-04-02T08:44:09.734Z,77.1
2023-04-02T08:45:24.052Z,76.6
2023-04-02T08:46:38.289Z,77.7
2023-04-02T08:47:52.520Z,76.1
2023-04-02T08:49:06.730Z,75.9
2023-04-02T08:50:20.960Z,76.5
2023-04-02T08:51:35.256Z,76.3
2023-04-02T08:52:49.513Z,76.6
2023-04-02T08:54:03.735Z,76.4
2023-04-02T08:55:17.958Z,75
2023-04-02T08:56:32.185Z,76.2
2023-04-02T08:57:46.481Z,76.3
2023-04-02T08:59:00.724Z,76.8
2023-04-02T09:00:14.955Z,76.4
2023-04-02T09:01:29.176Z,76.5
2023-04-02T09:02:43.414Z,75.2
2023-04-02T09:03:57.704Z,74.7
2023-04-02T09:05:11.953Z,75.2
2023-04-02T09:06:26.178Z,74.8
2023-04-02T09:07:40.395Z,74.2
2023-04-02T09:08:54.620Z,74.9
2023-04-02T09:10:08.924Z,75.5
2023-04-02T09:11:23.175Z,74.1
2023-04-02T09:12:37.396Z,73.6
2023-04-02T09:13:51.629Z,73.2
2023-04-02T09:15:05.926Z,73.7
2023-04-02T09:16:20.199Z,73.6
2023-04-02T09:17:34.480Z,74.4
2023-04-02T09:18:47.828Z,74
2023-04-02T09:20:01.119Z,74
2023-04-02T09:21:15.374Z,73.7
2023-04-02T09:22:29.588Z,74.2
2023-04-02T09:23:43.828Z,72.1
2023-04-02T09:24:58.052Z,73.6
2023-04-02T09:26:12.348Z,73.6
2023-04-02T09:27:26.584Z,74.2
2023-04-02T09:28:40.818Z,73
2023-04-02T09:29:55.051Z,74.1
2023-04-02T09:31:09.393Z,73.7
2023-04-02T09:32:23.693Z,72.8
2023-04-02T09:33:37.934Z,73.3
2023-04-02T09:34:52.159Z,73.1
2023-04-02T09:37:20.622Z,73.8
2023-04-02T09:38:34.915Z,73.4
2023-04-02T09:39:49.152Z,71.5
2023-04-02T09:41:03.372Z,71.6
2023-04-02T09:42:17.616Z,71.7
2023-04-02T09:43:31.829Z,71
2023-04-02T09:44:46.133Z,71.2
2023-04-02T09:46:00.375Z,71.8
2023-04-02T09:47:14.601Z,70
2023-04-02T09:48:28.834Z,68.3
2023-04-02T09:49:43.055Z,68.3
2023-04-02T09:50:57.344Z,69.4
2023-04-02T09:52:11.590Z,68.8
2023-04-02T09:53:25.825Z,67.1
2023-04-02T09:54:40.043Z,67.4
2023-04-02T09:55:54.283Z,68.4
2023-04-02T09:57:08.578Z,69.2
2023-04-02T09:58:22.820Z,69.3
2023-04-02T09:59:37.046Z,68.1
2023-04-02T10:00:51.277Z,67.3
2023-04-02T10:02:05.494Z,67.5
2023-04-02T10:03:19.792Z,67.5
2023-04-02T10:04:34.035Z,68.4
2023-04-02T10:05:48.255Z,69
2023-04-02T10:07:02.484Z,67.6
2023-04-02T10:08:16.718Z,67.8
2023-04-02T10:09:31.021Z,69.1
2023-04-02T10:10:45.247Z,69.7
2023-04-02T10:11:59.483Z,68
2023-04-02T10:13:13.700Z,67.9
2023-04-02T10:14:27.945Z,68.1
2023-04-02T10:15:42.227Z,68.2
2023-04-02T10:16:56.538Z,68
2023-04-02T10:18:09.840Z,68
2023-04-02T10:19:24.062Z,64.8
2023-04-02T10:20:38.359Z,64.7
2023-04-02T10:21:52.592Z,63
2023-04-02T10:23:06.817Z,63
2023-04-02T10:24:21.054Z,64.5
2023-04-02T10:25:35.275Z,64.5
2023-04-02T10:26:49.571Z,65.4
2023-04-02T10:28:03.827Z,65.4
2023-04-02T10:29:18.042Z,65
2023-04-02T10:30:32.281Z,62.9
2023-04-02T10:31:46.495Z,63.2
2023-04-02T10:33:00.799Z,63.9
2023-04-02T10:34:15.030Z,64.8
2023-04-02T10:35:29.263Z,66
2023-04-02T10:36:43.486Z,64.1
2023-04-02T10:37:57.721Z,63.9
2023-04-02T10:39:12.011Z,62.8
2023-04-02T10:40:26.257Z,63
2023-04-02T10:41:40.490Z,62.6
2023-04-02T10:42:54.714Z,64.5
2023-04-02T10:44:08.943Z,64.1
2023-04-02T10:45:23.232Z,62.6
2023-04-02T10:46:37.482Z,61.9
2023-04-02T10:47:51.707Z,60.9
2023-04-02T10:49:05.980Z,60.1
2023-04-02T10:50:20.274Z,57.8
2023-04-02T10:51:34.582Z,60.9
2023-04-02T10:54:03.170Z,61.4
2023-04-02T10:55:17.399Z,63
2023-04-02T10:56:31.611Z,64.2
2023-04-02T10:57:45.926Z,63.7
2023-04-02T10:59:00.170Z,63.7
2023-04-02T11:00:14.382Z,63.6
2023-04-02T11:01:28.610Z,64.1
2023-04-02T11:02:42.837Z,63.9
2023-04-02T11:03:57.135Z,64.3
2023-04-02T11:06:25.611Z,63.5
2023-04-02T11:07:39.832Z,61.5
2023-04-02T11:08:54.063Z,63.4
2023-04-02T11:10:08.358Z,59.7
2023-04-02T11:11:22.601Z,60.5
2023-04-02T11:12:36.822Z,59.9
2023-04-02T11:13:51.056Z,60.8
2023-04-02T11:15:05.269Z,56.6
2023-04-02T11:16:19.587Z,56.6
2023-04-02T11:17:33.817Z,55.5
2023-04-02T11:18:48.039Z,53.9
2023-04-02T11:20:02.280Z,54.2
2023-04-02T11:21:16.498Z,58.1
2023-04-02T11:22:30.800Z,58.7
2023-04-02T11:23:45.098Z,59.7
2023-04-02T11:24:58.386Z,62.1
2023-04-02T11:26:12.613Z,61.6
2023-04-02T11:27:26.928Z,62.5
2023-04-02T11:28:41.168Z,62.8
2023-04-02T11:29:55.379Z,62.8
2023-04-02T11:31:09.620Z,63.3
2023-04-02T11:32:23.845Z,61.6
2023-04-02T11:33:38.136Z,62.3
2023-04-02T11:34:52.377Z,62.5
2023-04-02T11:36:06.604Z,61.8
2023-04-02T11:37:20.836Z,62.2
2023-04-02T11:38:35.065Z,63.1
2023-04-02T11:39:49.348Z,63.4
2023-04-02T11:41:03.601Z,62.3
2023-04-02T11:43:32.182Z,63.6
2023-04-02T11:44:46.393Z,63.2
2023-04-02T11:46:00.695Z,63.7
2023-04-02T11:47:14.932Z,62.9
2023-04-02T11:48:29.158Z,64.3
2023-04-02T11:49:43.384Z,63.7
2023-04-02T11:50:57.614Z,64.6
2023-04-02T11:52:11.922Z,64.8
2023-04-02T11:53:26.157Z,64.3
2023-04-02T11:54:40.388Z,63.7
2023-04-02T11:55:54.607Z,62.8
2023-04-02T11:57:08.840Z,62.6
2023-04-02T11:58:23.130Z,61.6
2023-04-02T11:59:37.378Z,61.3
2023-04-02T12:00:51.600Z,61.8
2023-04-02T12:02:05.840Z,62.6
2023-04-02T12:03:20.055Z,61.3
2023-04-02T12:04:34.350Z,60.2
2023-04-02T12:05:48.604Z,60.9
2023-04-02T12:07:02.829Z,61
2023-04-02T12:08:17.046Z,62.4
2023-04-02T12:10:45.584Z,62.8
2023-04-02T12:11:59.811Z,61.9
2023-04-02T12:13:14.038Z,62.9
2023-04-02T12:14:28.272Z,62.6
2023-04-02T12:15:42.490Z,63.9
2023-04-02T12:16:56.807Z,63.6
2023-04-02T12:18:11.045Z,64.2
2023-04-02T12:19:25.264Z,62
2023-04-02T12:20:39.498Z,62.8
2023-04-02T12:21:53.712Z,62.8
2023-04-02T12:23:08.012Z,61.5
2023-04-02T12:24:22.253Z,60.4
2023-04-02T12:25:36.486Z,59.5
2023-04-02T12:26:50.706Z,56.6
2023-04-02T12:28:05.004Z,56.2
2023-04-02T12:29:19.293Z,58.1
2023-04-02T12:30:33.578Z,58.2
2023-04-02T12:31:46.864Z,56.6
2023-04-02T12:33:01.097Z,56.5
2023-04-02T12:34:15.393Z,56.2
2023-04-02T12:35:29.649Z,55.5
2023-04-02T12:36:43.873Z,55.1
2023-04-02T12:37:58.096Z,56.2
2023-04-02T12:39:12.313Z,58.7
2023-04-02T12:40:26.618Z,58.8
2023-04-02T12:41:40.861Z,59.3
2023-04-02T12:42:55.082Z,59.7
2023-04-02T12:44:09.305Z,60.5
2023-04-02T12:45:23.532Z,58.8
2023-04-02T12:46:37.843Z,57.3
2023-04-02T12:47:52.088Z,55.6
2023-04-02T12:49:06.303Z,54.6
2023-04-02T12:50:20.529Z,55.2
2023-04-02T12:51:34.755Z,55.6
2023-04-02T12:52:49.061Z,54.4
2023-04-02T12:54:03.301Z,56.1
2023-04-02T12:55:17.524Z,55.5
2023-04-02T12:56:31.747Z,56.4
2023-04-02T12:57:45.981Z,55.9
2023-04-02T12:59:00.274Z,54.6
2023-04-02T13:00:14.523Z,56
2023-04-02T13:01:28.883Z,56.1
2023-04-02T13:02:43.241Z,54.8
2023-04-02T13:03:57.467Z,56.5
2023-04-02T13:05:11.753Z,59.4
2023-04-02T13:06:26.008Z,58.6
2023-04-02T13:07:40.234Z,58.6
2023-04-02T13:08:54.461Z,55.8
2023-04-02T13:10:08.684Z,55.1
2023-04-02T13:11:22.979Z,54
2023-04-02T13:12:37.218Z,57.6
2023-04-02T13:13:51.456Z,58
2023-04-02T13:15:05.671Z,59.3
2023-04-02T13:16:19.905Z,56.6
2023-04-02T13:17:34.205Z,54.9
2023-04-02T13:18:48.430Z,57.4
2023-04-02T13:20:02.674Z,57
2023-04-02T13:21:16.892Z,56.1
2023-04-02T13:22:31.119Z,54.5
2023-04-02T13:23:45.410Z,53
2023-04-02T13:24:59.659Z,53.9
2023-04-02T13:26:13.885Z,54.3
2023-04-02T13:27:28.116Z,53.7
2023-04-02T13:28:42.342Z,53
2023-04-02T13:29:56.639Z,55.2
2023-04-02T13:31:10.887Z,53.8
2023-04-02T13:32:25.103Z,51.2
2023-04-02T13:34:53.553Z,54.6
2023-04-02T13:36:07.852Z,59
2023-04-02T13:37:22.091Z,58.7
2023-04-02T13:38:36.324Z,58.5
2023-04-02T13:39:50.551Z,59.3
2023-04-02T13:41:04.773Z,57.2
2023-04-02T13:42:19.069Z,55.1
2023-04-02T13:43:33.306Z,53.7
2023-04-02T13:44:47.536Z,52.3
2023-04-02T13:46:01.769Z,52.2
2023-04-02T13:47:15.985Z,51
2023-04-02T13:48:30.361Z,52.8
2023-04-02T13:49:44.631Z,55.5
2023-04-02T13:50:59.003Z,52.7
2023-04-02T13:52:13.225Z,52.4
2023-04-02T13:53:27.456Z,53
2023-04-02T13:54:41.758Z,55.2
2023-04-02T13:55:56.011Z,57.1
2023-04-02T13:57:10.236Z,57.7
2023-04-02T13:58:24.446Z,58.1
2023-04-02T13:59:38.677Z,56.3
2023-04-02T14:00:52.980Z,56.6
2023-04-02T14:03:21.456Z,53.8
2023-04-02T14:04:35.681Z,52.9
2023-04-02T14:05:49.890Z,53.6
2023-04-02T14:07:04.205Z,55.1
2023-04-02T14:08:18.431Z,56.1
2023-04-02T14:09:32.657Z,53.5
2023-04-02T14:10:46.893Z,55.1
2023-04-02T14:12:01.240Z,56.4
2023-04-02T14:13:15.540Z,54.9
2023-04-02T14:14:29.783Z,53.2
2023-04-02T14:15:44.012Z,53.4
2023-04-02T14:16:58.242Z,54.1
2023-04-02T14:18:12.464Z,53.5
2023-04-02T14:19:26.758Z,55.6
2023-04-02T14:20:41.000Z,56.1
2023-04-02T14:21:55.229Z,55.9
2023-04-02T14:23:09.446Z,57.6
2023-04-02T14:24:23.684Z,59
2023-04-02T14:26:52.228Z,57.6
2023-04-02T14:28:06.457Z,56
2023-04-02T14:29:20.673Z,55.2
2023-04-02T14:30:34.892Z,53.5
2023-04-02T14:31:49.201Z,54.9
2023-04-02T14:33:03.435Z,54.3
2023-04-02T14:34:17.676Z,53.7
2023-04-02T14:35:31.890Z,53.8
2023-04-02T14:36:46.125Z,52.7
2023-04-02T14:39:14.660Z,53.7
2023-04-02T14:40:28.884Z,53.6
2023-04-02T14:41:43.120Z,53.5
2023-04-02T14:42:57.348Z,53.4
2023-04-02T14:44:11.630Z,51.7
2023-04-02T14:45:25.889Z,52.4
2023-04-02T14:46:40.107Z,51.5
2023-04-02T14:47:54.330Z,50.9
2023-04-02T14:49:08.557Z,51.8
2023-04-02T14:50:22.868Z,51.9
2023-04-02T14:52:51.321Z,52.4
2023-04-02T14:54:05.555Z,50.5
2023-04-02T14:55:19.771Z,51.7
2023-04-02T14:56:34.072Z,50.8
2023-04-02T14:57:48.368Z,52.7
2023-04-02T14:59:01.671Z,53.3
2023-04-02T15:00:15.904Z,52.4
2023-04-02T15:01:30.204Z,51.9
2023-04-02T15:02:44.443Z,52.4
2023-04-02T15:03:58.659Z,50.9
2023-04-02T15:05:13.011Z,51.7
2023-04-02T15:07:41.539Z,51.7
2023-04-02T15:08:55.780Z,52.6
2023-04-02T15:10:10.009Z,52.5
2023-04-02T15:11:24.236Z,53.3
2023-04-02T15:12:38.459Z,53.6
2023-04-02T15:13:52.763Z,53.3
2023-04-02T15:15:07.013Z,52.2
2023-04-02T15:16:21.221Z,51.3
2023-04-02T15:17:35.450Z,51.5
2023-04-02T15:18:49.683Z,51.6
2023-04-02T15:20:03.973Z,51.8
2023-04-02T15:21:18.218Z,51.7
2023-04-02T15:22:32.566Z,51.4
2023-04-02T15:23:46.805Z,51.4
2023-04-02T15:25:01.021Z,50.7
2023-04-02T15:26:15.322Z,50.2
2023-04-02T15:27:29.574Z,51.2
2023-04-02T15:28:43.791Z,52.1
2023-04-02T15:29:58.161Z,51.4
2023-04-02T15:31:12.391Z,51.5
2023-04-02T15:32:26.683Z,52.3
2023-04-02T15:33:40.928Z,51.2
2023-04-02T15:34:55.158Z,51.2
2023-04-02T15:36:09.374Z,50.2
2023-04-02T15:37:23.602Z,51.5
2023-04-02T15:38:37.905Z,52
2023-04-02T15:39:52.153Z,52.4
2023-04-02T15:41:06.369Z,53.3
2023-04-02T15:42:20.719Z,52.3
2023-04-02T15:43:34.955Z,54.3
2023-04-02T15:44:49.244Z,55.3
2023-04-02T15:46:03.503Z,55.7
2023-04-02T15:47:17.714Z,55.7
2023-04-02T15:48:31.938Z,55
2023-04-02T15:49:46.163Z,52.9
2023-04-02T15:51:00.466Z,51.1
2023-04-02T15:52:14.000Z,49.6
2023-04-02T15:53:28.946Z,51.4
2023-04-02T15:54:43.163Z,52.5
2023-04-02T15:55:57.395Z,52.5
2023-04-02T15:57:11.699Z,51.6
2023-04-02T15:58:25.936Z,52.3
2023-04-02T15:59:40.302Z,51.5
2023-04-02T16:00:54.528Z,50.6
2023-04-02T16:02:08.882Z,50.9
2023-04-02T16:03:23.187Z,51.2
2023-04-02T16:04:37.419Z,51.9
2023-04-02T16:05:51.653Z,52.5
2023-04-02T16:07:05.881Z,52.6
2023-04-02T16:08:20.107Z,52.4
2023-04-02T16:09:34.402Z,52.7
2023-04-02T16:10:48.630Z,53.4
2023-04-02T16:12:02.875Z,54
2023-04-02T16:13:17.095Z,55.1
2023-04-02T16:14:31.312Z,56.2
2023-04-02T16:15:45.621Z,56.4
2023-04-02T16:16:59.864Z,58.1
2023-04-02T16:18:14.087Z,57.2
2023-04-02T16:19:28.310Z,57.6
2023-04-02T16:20:42.534Z,58.1
2023-04-02T16:21:56.848Z,57.8
2023-04-02T16:23:11.074Z,58.3
2023-04-02T16:24:25.309Z,58.4
2023-04-02T16:25:39.540Z,58.4
2023-04-02T16:26:53.905Z,58.8
2023-04-02T16:28:08.209Z,58.9
2023-04-02T16:29:22.437Z,58.3
2023-04-02T16:30:36.679Z,58.4
2023-04-02T16:31:50.890Z,57.8
2023-04-02T16:34:19.426Z,58.7
2023-04-02T16:35:33.675Z,58.9
2023-04-02T16:36:47.885Z,58.4
2023-04-02T16:38:02.125Z,59.7
2023-04-02T16:39:16.349Z,60.3
2023-04-02T16:40:30.645Z,59.6
2023-04-02T16:41:44.883Z,59.9
2023-04-02T16:42:59.103Z,59.9
2023-04-02T16:44:13.339Z,60.3
2023-04-02T16:45:27.570Z,59.8
2023-04-02T16:46:41.858Z,58.9
2023-04-02T16:47:56.107Z,59.1
2023-04-02T16:49:10.339Z,59.6
2023-04-02T16:50:24.553Z,59.9
2023-04-02T16:51:38.775Z,60.2
2023-04-02T16:52:53.080Z,59.5
2023-04-02T16:54:07.328Z,60.1
2023-04-02T16:55:21.556Z,59.6
2023-04-02T16:56:35.771Z,60.6
2023-04-02T16:59:04.454Z,60.6
2023-04-02T17:00:18.685Z,60.9
2023-04-02T17:01:32.922Z,60.6
2023-04-02T17:02:47.146Z,60.6
2023-04-02T17:04:01.357Z,60.6
2023-04-02T17:05:15.674Z,61